createdAt,value
2022-10-14T00:01:18.218Z,8.10
2022-10-14T00:04:06.750Z,8.13
2022-10-14T00:06:55.104Z,8.30
2022-10-14T00:09:44.817Z,8.13
2022-10-14T00:12:35.426Z,7.63
2022-10-14T00:15:23.793Z,8.57
2022-10-14T00:18:12.199Z,8.00
2022-10-14T00:21:01.944Z,8.10
2022-10-14T00:23:51.886Z,8.20
2022-10-14T00:26:41.947Z,8.67
2022-10-14T00:29:30.489Z,7.80
2022-10-14T00:32:19.108Z,7.77
2022-10-14T00:35:08.441Z,8.03
2022-10-14T00:37:56.840Z,8.20
2022-10-14T00:40:45.308Z,7.77
2022-10-14T00:44:00.856Z,8.07
2022-10-14T00:46:50.444Z,8.20
2022-10-14T00:49:41.697Z,7.93
2022-10-14T00:52:30.024Z,7.90
2022-10-14T00:55:19.079Z,7.50
2022-10-14T00:58:07.831Z,8.10
2022-10-14T01:01:00.085Z,7.83
2022-10-14T01:03:49.102Z,8.23
2022-10-14T01:06:50.082Z,7.80
2022-10-14T01:09:42.297Z,7.67
2022-10-14T01:12:46.222Z,7.90
2022-10-14T01:15:39.858Z,7.90
2022-10-14T01:18:55.712Z,7.63
2022-10-14T01:21:44.702Z,7.57
2022-10-14T01:24:43.471Z,7.53
2022-10-14T01:28:19.155Z,8.23
2022-10-14T01:31:10.392Z,7.87
2022-10-14T01:33:59.604Z,8.47
2022-10-14T01:36:50.331Z,7.13
2022-10-14T01:39:42.588Z,7.73
2022-10-14T01:42:33.602Z,9.00
2022-10-14T01:45:23.317Z,7.83
2022-10-14T01:48:13.248Z,7.23
2022-10-14T01:51:03.086Z,8.57
2022-10-14T01:53:55.014Z,7.33
2022-10-14T01:56:45.674Z,7.50
2022-10-14T01:59:35.235Z,7.70
2022-10-14T02:02:24.165Z,6.77
2022-10-14T02:05:17.955Z,7.63
2022-10-14T02:08:12.220Z,7.70
2022-10-14T02:11:09.762Z,7.77
2022-10-14T02:14:11.151Z,7.90
2022-10-14T02:17:02.662Z,7.43
2022-10-14T02:19:54.014Z,8.13
2022-10-14T02:22:45.518Z,7.40
2022-10-14T02:25:35.856Z,8.13
2022-10-14T02:28:26.691Z,8.03
2022-10-14T02:31:17.550Z,7.70
2022-10-14T02:34:09.671Z,8.10
2022-10-14T02:36:58.612Z,7.43
2022-10-14T02:39:52.286Z,8.83
2022-10-14T02:42:40.747Z,7.63
2022-10-14T02:45:29.197Z,8.37
2022-10-14T02:48:17.586Z,8.70
2022-10-14T02:51:06.368Z,8.27
2022-10-14T02:53:56.183Z,8.97
2022-10-14T02:56:47.978Z,8.40
2022-10-14T02:59:36.425Z,7.73
2022-10-14T03:02:26.353Z,7.50
2022-10-14T03:05:15.133Z,7.97
2022-10-14T03:08:03.659Z,7.30
2022-10-14T03:10:54.397Z,7.70
2022-10-14T03:13:45.013Z,7.87
2022-10-14T03:16:33.816Z,8.47
2022-10-14T03:19:22.269Z,7.77
2022-10-14T03:22:14.406Z,7.63
2022-10-14T03:25:03.244Z,7.63
2022-10-14T03:28:20.860Z,7.13
2022-10-14T03:31:20.523Z,6.97
2022-10-14T03:34:29.635Z,7.53
2022-10-14T03:37:26.466Z,6.80
2022-10-14T03:40:17.928Z,7.30
2022-10-14T03:43:06.325Z,7.03
2022-10-14T03:46:04.179Z,7.20
2022-10-14T03:48:55.079Z,6.77
2022-10-14T03:51:43.696Z,7.23
2022-10-14T03:54:41.692Z,7.10
2022-10-14T03:57:31.511Z,7.40
2022-10-14T04:00:21.805Z,7.27
2022-10-14T04:03:19.882Z,7.33
2022-10-14T04:06:09.748Z,7.27
2022-10-14T04:08:58.345Z,6.73
2022-10-14T04:11:51.996Z,6.60
2022-10-14T04:14:59.615Z,7.47
2022-10-14T04:17:53.316Z,6.70
2022-10-14T04:20:41.996Z,6.57
2022-10-14T04:23:32.897Z,7.03
2022-10-14T04:26:29.269Z,6.57
2022-10-14T04:29:17.895Z,7.03
2022-10-14T04:32:16.066Z,6.47
2022-10-14T04:35:05.414Z,7.17
2022-10-14T04:37:53.934Z,6.67
2022-10-14T04:40:47.239Z,6.87
2022-10-14T04:43:36.114Z,7.20
2022-10-14T04:46:39.641Z,6.40
2022-10-14T04:49:28.613Z,7.13
2022-10-14T04:52:37.280Z,7.87
2022-10-14T04:55:30.967Z,8.20
2022-10-14T04:58:20.832Z,9.03
2022-10-14T05:01:10.603Z,9.77
2022-10-14T05:04:01.490Z,9.27
2022-10-14T05:06:55.593Z,9.13
2022-10-14T05:09:49.060Z,9.57
2022-10-14T05:12:45.517Z,10.50
2022-10-14T05:15:35.433Z,9.47
2022-10-14T05:18:29.857Z,10.33
2022-10-14T05:21:22.717Z,10.07
2022-10-14T05:24:20.983Z,9.63
2022-10-14T05:27:10.264Z,11.40
2022-10-14T05:29:59.063Z,10.73
2022-10-14T05:32:48.814Z,10.30
2022-10-14T05:35:57.995Z,10.53
2022-10-14T05:38:48.629Z,10.70
2022-10-14T05:41:38.791Z,10.73
2022-10-14T05:44:27.916Z,9.97
2022-10-14T05:47:16.843Z,9.63
2022-10-14T05:50:10.105Z,9.83
2022-10-14T05:52:58.512Z,9.93
2022-10-14T05:55:51.914Z,10.37
2022-10-14T05:58:43.047Z,10.00
2022-10-14T06:01:34.592Z,9.50
2022-10-14T06:04:03.454Z,9.47
2022-10-14T06:06:33.035Z,10.00
2022-10-14T06:09:01.462Z,10.13
2022-10-14T06:11:29.610Z,10.33
2022-10-14T06:13:57.863Z,10.43
2022-10-14T06:16:26.035Z,9.37
2022-10-14T06:18:55.349Z,8.97
2022-10-14T06:21:24.340Z,8.20
2022-10-14T06:23:56.561Z,8.70
2022-10-14T06:26:28.293Z,9.00
2022-10-14T06:29:02.847Z,8.70
2022-10-14T06:31:32.737Z,8.47
2022-10-14T06:34:01.731Z,7.83
2022-10-14T06:36:30.388Z,7.90
2022-10-14T06:39:00.698Z,8.57
2022-10-14T06:41:28.957Z,8.57
2022-10-14T06:43:57.613Z,8.73
2022-10-14T06:46:26.549Z,8.30
2022-10-14T06:48:55.360Z,8.10
2022-10-14T06:51:24.382Z,8.63
2022-10-14T06:53:54.408Z,8.17
2022-10-14T06:56:26.059Z,8.70
2022-10-14T06:58:55.107Z,7.60
2022-10-14T07:01:23.630Z,8.00
2022-10-14T07:03:55.730Z,7.83
2022-10-14T07:06:25.386Z,7.10
2022-10-14T07:08:54.417Z,6.77
2022-10-14T07:11:24.636Z,7.53
2022-10-14T07:13:53.691Z,7.77
2022-10-14T07:16:23.111Z,7.67
2022-10-14T07:18:51.800Z,6.43
2022-10-14T07:21:20.378Z,7.77
2022-10-14T07:23:48.636Z,7.13
2022-10-14T07:26:16.912Z,7.03
2022-10-14T07:28:47.211Z,6.70
2022-10-14T07:31:16.392Z,6.70
2022-10-14T07:33:44.751Z,6.73
2022-10-14T07:36:22.945Z,6.83
2022-10-14T07:38:54.789Z,6.83
2022-10-14T07:41:24.432Z,7.30
2022-10-14T07:43:55.285Z,6.90
2022-10-14T07:46:29.798Z,6.90
2022-10-14T07:48:58.720Z,7.77
2022-10-14T07:51:27.539Z,7.33
2022-10-14T07:57:07.428Z,6.77
2022-10-14T07:59:37.624Z,7.17
2022-10-14T08:02:06.161Z,7.37
2022-10-14T08:04:34.887Z,7.03
2022-10-14T08:07:06.495Z,7.30
2022-10-14T08:09:36.833Z,7.67
2022-10-14T08:12:05.951Z,7.20
2022-10-14T08:14:34.447Z,6.73
2022-10-14T08:17:04.244Z,7.27
2022-10-14T08:19:32.950Z,6.50
2022-10-14T08:22:01.446Z,7.03
2022-10-14T08:24:32.511Z,7.50
2022-10-14T08:27:01.382Z,7.60
2022-10-14T08:29:30.421Z,6.90
2022-10-14T08:31:59.198Z,6.40
2022-10-14T08:34:29.691Z,6.87
2022-10-14T08:37:00.784Z,6.80
2022-10-14T08:39:29.633Z,6.77
2022-10-14T08:42:22.332Z,6.37
2022-10-14T08:44:53.526Z,6.03
2022-10-14T08:47:26.711Z,6.13
2022-10-14T08:50:02.399Z,6.03
2022-10-14T08:52:37.612Z,5.90
2022-10-14T08:55:16.178Z,5.97
2022-10-14T08:57:49.772Z,5.87
2022-10-14T09:00:19.142Z,5.83
2022-10-14T09:02:49.375Z,6.53
2022-10-14T09:05:22.154Z,6.10
2022-10-14T09:07:51.966Z,6.17
2022-10-14T09:10:27.362Z,5.67
2022-10-14T09:12:56.783Z,5.73
2022-10-14T09:15:29.102Z,5.60
2022-10-14T09:20:38.388Z,5.80
2022-10-14T09:23:17.624Z,5.53
2022-10-14T09:25:54.137Z,5.47
2022-10-14T09:28:24.132Z,5.40
2022-10-14T09:30:52.935Z,5.70
2022-10-14T09:33:28.360Z,5.30
2022-10-14T09:38:32.453Z,5.10
2022-10-14T09:41:01.792Z,4.97
2022-10-14T09:43:34.503Z,4.83
2022-10-14T09:46:05.029Z,5.00
2022-10-14T09:48:37.673Z,4.97
2022-10-14T09:51:23.355Z,5.07
2022-10-14T09:53:54.500Z,5.10
2022-10-14T09:56:31.036Z,4.87
2022-10-14T09:59:00.432Z,4.97
2022-10-14T10:01:30.439Z,4.23
2022-10-14T10:03:59.407Z,4.70
2022-10-14T10:06:29.669Z,4.47
2022-10-14T10:09:00.247Z,4.60
2022-10-14T10:11:29.601Z,3.60
2022-10-14T10:13:58.035Z,3.80
2022-10-14T10:16:27.398Z,4.00
2022-10-14T10:18:57.148Z,4.07
2022-10-14T10:21:26.863Z,3.97
2022-10-14T10:23:58.694Z,4.00
2022-10-14T10:26:31.679Z,3.77
2022-10-14T10:29:00.635Z,3.30
2022-10-14T10:31:57.277Z,3.40
2022-10-14T10:34:59.764Z,3.70
2022-10-14T10:37:29.966Z,3.87
2022-10-14T10:40:28.861Z,3.30
2022-10-14T10:43:27.720Z,3.27
2022-10-14T10:46:09.211Z,3.20
2022-10-14T10:48:42.533Z,3.90
2022-10-14T10:51:13.776Z,2.97
2022-10-14T10:53:55.653Z,3.53
2022-10-14T10:56:33.435Z,3.57
2022-10-14T11:01:55.584Z,3.10
2022-10-14T11:04:30.923Z,3.53
2022-10-14T11:07:30.623Z,3.23
2022-10-14T11:10:22.196Z,3.67
2022-10-14T11:12:56.224Z,3.30
2022-10-14T11:15:31.534Z,3.27
2022-10-14T11:18:02.737Z,3.03
2022-10-14T11:20:39.249Z,3.30
2022-10-14T11:23:25.054Z,3.50
2022-10-14T11:25:55.730Z,3.20
2022-10-14T11:28:30.413Z,3.37
2022-10-14T11:31:02.265Z,3.17
2022-10-14T11:33:41.784Z,3.30
2022-10-14T11:36:20.287Z,3.10
2022-10-14T11:39:00.035Z,3.20
2022-10-14T11:41:35.398Z,3.00
2022-10-14T11:44:08.790Z,2.77
2022-10-14T11:46:38.786Z,3.00
2022-10-14T11:49:12.559Z,3.13
2022-10-14T11:51:41.962Z,3.20
2022-10-14T11:54:12.586Z,2.97
2022-10-14T11:56:45.585Z,3.20
2022-10-14T11:59:40.014Z,2.97
2022-10-14T12:02:33.203Z,3.43
2022-10-14T12:05:05.783Z,3.20
2022-10-14T12:07:37.300Z,3.37
2022-10-14T12:10:08.017Z,3.17
2022-10-14T12:12:36.585Z,3.13
2022-10-14T12:15:14.255Z,3.50
2022-10-14T12:17:45.990Z,3.80
2022-10-14T12:20:22.838Z,3.47
2022-10-14T12:22:51.019Z,3.77
2022-10-14T12:25:19.296Z,3.83
2022-10-14T12:27:47.466Z,3.77
2022-10-14T12:30:37.726Z,3.87
2022-10-14T12:33:07.311Z,3.80
2022-10-14T12:35:59.708Z,3.97
2022-10-14T12:38:28.942Z,3.90
2022-10-14T12:41:34.075Z,3.70
2022-10-14T12:44:03.652Z,3.50
2022-10-14T12:46:35.523Z,4.00
2022-10-14T12:49:05.054Z,3.87
2022-10-14T12:51:33.492Z,3.53
2022-10-14T12:54:08.559Z,3.83
2022-10-14T12:56:40.955Z,3.67
2022-10-14T12:59:17.434Z,3.57
2022-10-14T13:01:47.080Z,3.93
2022-10-14T13:04:20.044Z,3.37
2022-10-14T13:07:43.406Z,3.80
2022-10-14T13:10:52.385Z,3.90
2022-10-14T13:14:00.596Z,3.40
2022-10-14T13:17:04.878Z,4.00
2022-10-14T13:19:45.675Z,4.20
2022-10-14T13:22:41.945Z,4.03
2022-10-14T13:25:19.692Z,4.10
2022-10-14T13:28:09.289Z,3.53
2022-10-14T13:30:46.150Z,3.50
2022-10-14T13:33:20.616Z,3.63
2022-10-14T13:35:57.177Z,4.17
2022-10-14T13:38:25.513Z,4.20
2022-10-14T13:40:54.537Z,3.90
2022-10-14T13:43:26.757Z,4.07
2022-10-14T13:46:00.105Z,3.80
2022-10-14T13:48:32.887Z,4.03
2022-10-14T13:51:42.417Z,3.90
2022-10-14T13:54:20.075Z,4.50
2022-10-14T14:02:40.374Z,4.20
2022-10-14T14:05:15.692Z,4.10
2022-10-14T14:10:32.449Z,3.77
2022-10-14T14:13:01.696Z,3.80
2022-10-14T14:15:30.123Z,3.93
2022-10-14T14:17:58.206Z,4.10
2022-10-14T14:20:29.632Z,4.10
2022-10-14T14:22:59.185Z,4.57
2022-10-14T14:25:42.996Z,4.30
2022-10-14T14:28:14.667Z,4.27
2022-10-14T14:30:43.038Z,4.30
2022-10-14T14:33:13.525Z,4.07
2022-10-14T14:35:42.994Z,3.90
2022-10-14T14:38:25.997Z,4.17
2022-10-14T14:41:03.539Z,3.40
2022-10-14T14:43:36.412Z,3.50
2022-10-14T14:46:05.960Z,3.50
2022-10-14T14:48:34.314Z,3.00
2022-10-14T14:51:03.771Z,3.43
2022-10-14T14:53:32.114Z,3.47
2022-10-14T14:56:03.497Z,3.00
2022-10-14T14:58:34.775Z,3.27
2022-10-14T15:01:03.711Z,3.67
2022-10-14T15:03:34.475Z,3.40
2022-10-14T15:06:05.823Z,3.27
2022-10-14T15:08:36.687Z,3.40
2022-10-14T15:11:05.294Z,3.40
2022-10-14T15:13:45.278Z,3.43
2022-10-14T15:16:13.394Z,4.13
2022-10-14T15:18:43.496Z,4.10
2022-10-14T15:21:18.998Z,4.00
2022-10-14T15:24:03.023Z,4.10
2022-10-14T15:26:34.484Z,3.93
2022-10-14T15:29:18.677Z,4.17
2022-10-14T15:32:10.915Z,3.77
2022-10-14T15:34:41.825Z,3.40
2022-10-14T15:37:12.824Z,4.00
2022-10-14T15:39:40.980Z,4.03
2022-10-14T15:42:12.132Z,3.73
2022-10-14T15:44:40.240Z,3.70
2022-10-14T15:47:22.309Z,3.60
2022-10-14T15:49:51.778Z,2.97
2022-10-14T15:52:22.978Z,3.27
2022-10-14T15:54:54.705Z,3.10
2022-10-14T15:57:23.683Z,3.30
2022-10-14T15:59:52.670Z,3.13
2022-10-14T16:02:26.165Z,3.50
2022-10-14T16:07:45.405Z,3.50
2022-10-14T16:10:15.967Z,3.33
2022-10-14T16:12:44.213Z,3.03
2022-10-14T16:15:35.827Z,3.30
2022-10-14T16:18:04.259Z,3.60
2022-10-14T16:20:33.711Z,3.03
2022-10-14T16:23:04.409Z,3.43
2022-10-14T16:25:35.531Z,4.03
2022-10-14T16:28:07.549Z,3.53
2022-10-14T16:30:38.400Z,3.57
2022-10-14T16:33:06.658Z,3.43
2022-10-14T16:35:36.146Z,3.53
2022-10-14T16:38:04.197Z,3.07
2022-10-14T16:40:36.574Z,3.53
2022-10-14T16:43:07.890Z,3.30
2022-10-14T16:45:36.075Z,3.70
2022-10-14T16:48:04.347Z,3.57
2022-10-14T16:50:32.467Z,3.70
2022-10-14T16:53:19.560Z,3.60
2022-10-14T16:55:47.659Z,3.90
2022-10-14T16:58:15.701Z,3.37
2022-10-14T17:00:43.700Z,4.03
2022-10-14T17:03:12.457Z,3.87
2022-10-14T17:05:40.840Z,4.67
2022-10-14T17:08:10.614Z,4.33
2022-10-14T17:10:39.635Z,4.33
2022-10-14T17:13:08.164Z,4.13
2022-10-14T17:15:39.604Z,4.20
2022-10-14T17:18:12.073Z,3.70
2022-10-14T17:20:40.546Z,4.10
2022-10-14T17:23:10.541Z,4.17
2022-10-14T17:25:40.974Z,3.90
2022-10-14T17:28:11.034Z,3.23
2022-10-14T17:30:39.093Z,3.20
2022-10-14T17:33:07.121Z,3.60
2022-10-14T17:35:35.314Z,2.90
2022-10-14T17:38:03.445Z,2.93
2022-10-14T17:40:33.797Z,3.30
2022-10-14T17:43:01.906Z,3.40
2022-10-14T17:45:31.117Z,3.20
2022-10-14T17:47:59.184Z,3.20
2022-10-14T17:50:27.985Z,2.80
2022-10-14T17:52:58.738Z,3.50
2022-10-14T17:55:26.810Z,3.40
2022-10-14T17:57:56.262Z,3.13
2022-10-14T18:00:25.018Z,3.23
2022-10-14T18:02:53.083Z,2.90
2022-10-14T18:05:21.125Z,2.87
2022-10-14T18:07:49.177Z,2.97
2022-10-14T18:10:17.496Z,2.53
2022-10-14T18:12:45.868Z,2.70
2022-10-14T18:15:15.422Z,2.80
2022-10-14T18:17:43.494Z,2.97
2022-10-14T18:20:11.838Z,2.60
2022-10-14T18:22:40.543Z,2.80
2022-10-14T18:25:09.302Z,2.87
2022-10-14T18:27:37.381Z,2.77
2022-10-14T18:30:07.248Z,2.80
2022-10-14T18:32:36.878Z,3.23
2022-10-14T18:35:05.957Z,2.60
2022-10-14T18:37:34.203Z,2.53
2022-10-14T18:40:02.360Z,2.80
2022-10-14T18:42:30.469Z,2.60
2022-10-14T18:44:59.072Z,3.00
2022-10-14T18:47:27.220Z,2.40
2022-10-14T18:49:59.626Z,2.50
2022-10-14T18:52:27.820Z,2.20
2022-10-14T18:54:55.949Z,2.70
2022-10-14T18:57:24.644Z,2.20
2022-10-14T18:59:52.722Z,2.07
2022-10-14T19:02:21.605Z,2.40
2022-10-14T19:04:49.847Z,2.00
2022-10-14T19:07:19.261Z,2.50
2022-10-14T19:09:48.713Z,2.13
2022-10-14T19:12:34.585Z,2.00
2022-10-14T19:15:02.782Z,1.90
2022-10-14T19:17:30.881Z,2.00
2022-10-14T19:20:00.095Z,2.33
2022-10-14T19:22:29.609Z,3.00
2022-10-14T19:24:57.964Z,2.23
2022-10-14T19:27:26.177Z,2.60
2022-10-14T19:29:54.321Z,2.70
2022-10-14T19:32:22.451Z,2.70
2022-10-14T19:34:50.512Z,2.50
2022-10-14T19:37:18.621Z,2.50
2022-10-14T19:39:48.031Z,2.50
2022-10-14T19:42:16.067Z,2.73
2022-10-14T19:44:44.192Z,2.70
2022-10-14T19:47:12.595Z,2.50
2022-10-14T19:49:40.685Z,2.50
2022-10-14T19:52:08.787Z,2.70
2022-10-14T19:54:36.952Z,2.40
2022-10-14T19:57:06.439Z,2.63
2022-10-14T19:59:34.479Z,2.70
2022-10-14T20:02:02.544Z,2.70
2022-10-14T20:04:50.923Z,2.13
2022-10-14T20:07:39.228Z,2.40
2022-10-14T20:10:27.671Z,2.30
2022-10-14T20:13:17.673Z,2.00
2022-10-14T20:16:07.846Z,1.50
2022-10-14T20:18:56.389Z,1.73
2022-10-14T20:21:44.754Z,1.30
2022-10-14T20:24:33.317Z,1.20
2022-10-14T20:27:21.930Z,1.33
2022-10-14T20:30:13.686Z,1.20
2022-10-14T20:33:01.984Z,1.00
2022-10-14T20:35:59.051Z,1.10
2022-10-14T20:38:48.097Z,1.20
2022-10-14T20:41:36.484Z,1.00
2022-10-14T20:44:25.181Z,1.10
2022-10-14T20:47:14.924Z,1.00
2022-10-14T20:50:04.322Z,1.10
2022-10-14T20:52:52.703Z,1.10
2022-10-14T20:55:41.123Z,0.90
2022-10-14T20:58:29.525Z,1.00
2022-10-14T21:01:18.480Z,0.90
2022-10-14T21:04:08.612Z,1.10
2022-10-14T21:06:57.029Z,1.00
2022-10-14T21:09:45.628Z,1.07
2022-10-14T21:12:33.975Z,1.00
2022-10-14T21:15:22.313Z,0.90
2022-10-14T21:18:10.721Z,0.90
2022-10-14T21:21:02.022Z,0.90
2022-10-14T21:23:50.470Z,1.10
2022-10-14T21:26:38.847Z,1.07
2022-10-14T21:29:27.463Z,1.00
2022-10-14T21:32:15.812Z,0.90
2022-10-14T21:35:04.597Z,1.10
2022-10-14T21:37:54.524Z,1.00
2022-10-14T21:40:42.897Z,1.20
2022-10-14T21:43:31.820Z,1.20
2022-10-14T21:46:20.139Z,1.07
2022-10-14T21:49:10.249Z,1.00
2022-10-14T21:51:58.946Z,1.10
2022-10-14T21:54:48.683Z,1.17
2022-10-14T21:57:37.066Z,1.00
2022-10-14T22:00:25.447Z,1.40
2022-10-14T22:03:13.779Z,1.10
2022-10-14T22:06:02.823Z,1.30
2022-10-14T22:08:52.451Z,1.43
2022-10-14T22:11:42.365Z,1.17
2022-10-14T22:14:30.731Z,1.00
2022-10-14T22:17:19.106Z,1.13
2022-10-14T22:20:09.046Z,1.33
2022-10-14T22:22:59.217Z,1.10
2022-10-14T22:25:47.591Z,1.20
2022-10-14T22:28:37.357Z,1.10
2022-10-14T22:31:25.938Z,1.20
2022-10-14T22:34:16.231Z,1.27
2022-10-14T22:37:04.618Z,1.10
2022-10-14T22:39:52.972Z,1.40
2022-10-14T22:42:42.352Z,1.30
2022-10-14T22:45:32.332Z,1.20
2022-10-14T22:48:20.665Z,1.27
2022-10-14T22:51:10.910Z,1.30
2022-10-14T22:53:59.323Z,1.30
2022-10-14T22:56:47.698Z,1.07
2022-10-14T22:59:36.066Z,1.20
2022-10-14T23:02:26.067Z,1.30
2022-10-14T23:05:14.750Z,1.20
2022-10-14T23:08:03.363Z,1.00
2022-10-14T23:10:51.766Z,1.10
2022-10-14T23:13:40.122Z,0.90
2022-10-14T23:16:28.881Z,1.20
2022-10-14T23:19:18.565Z,1.00
2022-10-14T23:22:06.953Z,1.20
2022-10-14T23:24:55.317Z,1.00
2022-10-14T23:27:43.746Z,1.00
2022-10-14T23:30:32.192Z,1.00
2022-10-14T23:33:20.547Z,1.00
2022-10-14T23:36:11.995Z,1.00
2022-10-14T23:39:00.371Z,1.10
2022-10-14T23:41:48.711Z,1.20
2022-10-14T23:44:37.054Z,1.10
2022-10-14T23:47:25.748Z,1.20
2022-10-14T23:50:14.295Z,1.17
2022-10-14T23:53:04.014Z,1.20
2022-10-14T23:55:52.367Z,1.30
2022-10-14T23:58:40.710Z,1.10
